Time;durP1;ratioP1;P1;durP2;ratioP2;P2;SDS_P1;SDS_P2;PMS_P1;PMS_P2;Temp;Humidity;BMP_temperature;BMP_pressure;BME280_temperature;BME280_humidity;BME280_pressure;Samples;Min_cycle;Max_cycle;Signal;HPM_P1;HPM_P2
2022/04/14 00:00:58;;;;;;;3.80;2.25;;;12.70;57.70;;;8.86;76.57;95508.72;4993972;28;20029;-51
2022/04/14 00:03:24;;;;;;;8.73;2.95;;;12.70;57.80;;;8.75;77.07;95513.19;4993863;28;20050;-50
2022/04/14 00:05:56;;;;;;;6.55;2.42;;;12.60;57.80;;;8.65;77.51;95511.25;4994052;28;20033;-51
2022/04/14 00:08:25;;;;;;;6.88;2.38;;;12.60;58.10;;;8.63;77.26;95512.56;4995237;28;20031;-53
2022/04/14 00:10:50;;;;;;;6.32;2.55;;;12.50;58.10;;;8.58;77.57;95510.63;4995167;28;20373;-52
2022/04/14 00:13:22;;;;;;;8.07;2.60;;;12.40;58.00;;;8.51;77.84;95515.38;4994835;28;20040;-50
2022/04/14 00:15:54;;;;;;;9.13;2.75;;;12.40;59.00;;;8.43;78.03;95514.00;4995080;28;20057;-49
2022/04/14 00:18:26;;;;;;;8.52;2.58;;;12.40;58.60;;;8.39;78.28;95512.88;4995080;28;20053;-53
2022/04/14 00:20:51;;;;;;;5.20;2.60;;;12.30;58.70;;;8.36;78.36;95513.34;4994969;28;20041;-51
2022/04/14 00:23:20;;;;;;;7.65;3.05;;;12.30;58.60;;;8.37;78.76;95519.44;4993576;28;20034;-49
2022/04/14 00:25:46;;;;;;;6.57;2.72;;;12.30;59.00;;;8.39;78.50;95522.69;4994814;28;20030;-50
2022/04/14 00:28:12;;;;;;;6.43;2.60;;;12.20;59.00;;;8.36;78.44;95521.31;5009941;28;20054;-49
2022/04/14 00:30:38;;;;;;;6.65;2.30;;;12.20;59.10;;;8.34;78.35;95523.44;4993482;28;20030;-49
2022/04/14 00:33:06;;;;;;;10.00;2.97;;;12.20;59.10;;;8.26;78.75;95522.00;4994636;28;20106;-49
2022/04/14 00:35:33;;;;;;;8.13;2.60;;;12.10;59.20;;;8.19;78.90;95516.13;4994671;28;20034;-53
2022/04/14 00:37:59;;;;;;;4.60;2.75;;;12.10;59.40;;;8.14;78.82;95499.34;4993451;28;20100;-51
2022/04/14 00:40:28;;;;;;;8.55;2.95;;;12.10;59.40;;;8.20;78.86;95515.06;4988133;28;20027;-49
2022/04/14 00:42:56;;;;;;;6.35;2.72;;;12.10;59.40;;;8.17;78.95;95512.91;4975169;28;20040;-53
2022/04/14 00:45:25;;;;;;;9.43;2.90;;;12.00;59.40;;;8.13;79.66;95508.34;4993200;28;20026;-50
2022/04/14 00:47:53;;;;;;;9.77;3.03;;;12.00;59.70;;;8.16;79.45;95513.16;4993450;28;20080;-50
2022/04/14 00:50:25;;;;;;;8.70;2.95;;;12.00;59.80;;;8.16;79.26;95515.81;4993189;28;20126;-50
2022/04/14 00:52:57;;;;;;;7.53;2.90;;;12.00;59.80;;;8.12;79.62;95512.88;4994100;28;20031;-53
2022/04/14 00:55:25;;;;;;;4.57;2.53;;;11.90;59.80;;;8.09;79.61;95513.38;4994444;28;20058;-50
2022/04/14 00:58:15;;;;;;;6.60;2.60;;;11.90;59.80;;;8.06;79.59;95506.72;4993018;28;20036;-50
2022/04/14 01:00:41;;;;;;;8.20;2.80;;;11.90;60.00;;;8.06;79.60;95512.00;4994336;28;20117;-49
2022/04/14 01:03:08;;;;;;;6.35;2.40;;;11.90;59.90;;;8.05;79.41;95510.41;4996512;23;20050;-53
2022/04/14 01:05:34;;;;;;;4.68;3.03;;;11.90;59.90;;;8.00;79.48;95510.34;4975927;28;20084;-54
2022/04/14 01:08:05;;;;;;;7.07;2.30;;;11.90;60.00;;;7.95;79.70;95510.28;4976395;28;20022;-54
2022/04/14 01:10:31;;;;;;;6.10;2.53;;;11.90;60.20;;;7.98;79.77;95522.25;4977329;28;20077;-56
2022/04/14 01:12:57;;;;;;;5.25;2.72;;;11.80;60.10;;;7.93;79.89;95519.53;4983210;28;20037;-55
2022/04/14 01:15:26;;;;;;;7.43;3.05;;;11.80;60.10;;;7.98;80.14;95531.00;4996143;28;20026;-54
2022/04/14 01:18:07;;;;;;;6.05;2.60;;;11.80;60.50;;;7.96;80.06;95527.81;4995966;28;20396;-55
2022/04/14 01:20:42;;;;;;;7.00;2.90;;;11.80;60.70;;;7.94;79.92;95518.50;4995918;28;20026;-51
2022/04/14 01:23:10;;;;;;;6.13;2.40;;;11.80;60.70;;;7.99;79.72;95535.28;4996082;28;20373;-52
2022/04/14 01:25:38;;;;;;;10.48;2.22;;;11.80;60.50;;;7.97;80.05;95533.94;4996094;28;20088;-53
2022/04/14 01:28:05;;;;;;;5.32;2.47;;;11.80;60.60;;;7.95;80.15;95528.84;4995907;28;20030;-53
2022/04/14 01:30:39;;;;;;;5.78;2.60;;;11.80;60.60;;;7.95;80.17;95534.16;4995618;28;20038;-51
2022/04/14 01:33:08;;;;;;;5.93;2.45;;;11.80;60.90;;;7.96;80.12;95535.78;4996053;28;20083;-53
2022/04/14 01:35:34;;;;;;;6.80;2.47;;;11.80;60.80;;;7.94;80.11;95537.06;4995506;28;20531;-52
2022/04/14 01:37:59;;;;;;;6.18;2.83;;;11.80;60.70;;;7.95;80.14;95541.31;4995683;28;20026;-53
2022/04/14 01:40:25;;;;;;;8.07;2.60;;;11.70;60.70;;;7.91;80.19;95535.72;5013002;28;20097;-52
2022/04/14 01:42:54;;;;;;;9.73;2.90;;;11.70;60.80;;;7.89;80.30;95540.47;5013032;28;20034;-52
2022/04/14 01:45:23;;;;;;;7.05;2.80;;;11.80;61.00;;;7.89;80.41;95541.25;5006341;28;20409;-52
2022/04/14 01:47:58;;;;;;;10.10;2.97;;;11.70;61.00;;;7.90;80.50;95542.09;4976114;28;20105;-51
2022/04/14 01:50:23;;;;;;;7.53;3.05;;;11.70;61.10;;;7.88;80.43;95544.16;4993413;28;20030;-53
2022/04/14 01:52:50;;;;;;;5.30;2.47;;;11.70;61.00;;;7.83;80.94;95546.75;4993138;28;20027;-52
2022/04/14 01:55:15;;;;;;;13.07;2.80;;;11.70;61.30;;;7.86;80.44;95544.41;4976060;28;20045;-51
2022/04/14 01:57:42;;;;;;;6.72;2.42;;;11.70;61.40;;;7.84;80.27;95546.53;4993120;28;20409;-49
2022/04/14 02:00:09;;;;;;;7.72;2.80;;;11.70;61.60;;;7.85;80.45;95555.28;4992171;28;20116;-51
2022/04/14 02:02:42;;;;;;;7.05;3.10;;;11.70;61.70;;;7.80;80.60;95552.56;4975671;28;20034;-49
2022/04/14 02:05:08;;;;;;;8.30;2.60;;;11.70;61.80;;;7.82;80.56;95563.72;4976423;28;20367;-49
2022/04/14 02:07:34;;;;;;;9.32;3.00;;;11.70;61.70;;;7.80;80.58;95568.47;4993110;28;20113;-50
2022/04/14 02:10:06;;;;;;;6.15;2.90;;;11.70;61.90;;;7.77;80.61;95567.13;4991871;28;20688;-53
2022/04/14 02:12:34;;;;;;;8.90;2.53;;;11.70;62.10;;;7.76;80.49;95559.41;4975728;28;20026;-51
2022/04/14 02:15:09;;;;;;;8.43;2.83;;;11.60;61.80;;;7.69;80.69;95567.53;4993104;28;20437;-50
2022/04/14 02:17:38;;;;;;;7.90;3.00;;;11.60;62.00;;;7.63;80.83;95569.31;4991829;28;20113;-53
2022/04/14 02:20:08;;;;;;;6.55;2.80;;;11.60;61.90;;;7.59;81.26;95562.91;4975588;28;20018;-51
2022/04/14 02:22:43;;;;;;;12.05;2.75;;;11.50;61.90;;;7.55;81.17;95561.81;4991819;28;20028;-51
2022/04/14 02:25:12;;;;;;;5.28;2.75;;;11.50;62.10;;;7.55;81.07;95568.94;4975608;28;20126;-52
2022/04/14 02:27:37;;;;;;;10.77;2.80;;;11.40;62.00;;;7.48;81.19;95569.13;4991731;28;20114;-52
2022/04/14 02:30:05;;;;;;;6.57;2.60;;;11.50;62.00;;;7.47;81.71;95564.09;4992952;28;20105;-49
2022/04/14 02:32:30;;;;;;;4.00;2.65;;;11.40;62.10;;;7.44;81.70;95565.38;4992586;28;20112;-49
2022/04/14 02:34:59;;;;;;;4.85;3.00;;;11.40;62.40;;;7.44;81.58;95572.53;4992683;28;20493;-49
2022/04/14 02:37:25;;;;;;;5.70;2.60;;;11.40;62.40;;;7.39;81.79;95576.69;4992696;28;20042;-49
2022/04/14 02:39:56;;;;;;;8.18;3.03;;;11.40;62.60;;;7.37;81.87;95567.41;4992762;28;20102;-52
2022/04/14 02:42:22;;;;;;;5.68;2.67;;;11.30;63.00;;;7.40;81.62;95573.00;4992415;28;20031;-52
2022/04/14 02:44:54;;;;;;;7.03;3.00;;;11.30;62.80;;;7.35;81.80;95572.13;5001075;28;20037;-53
2022/04/14 02:47:20;;;;;;;5.30;2.70;;;11.30;62.90;;;7.30;81.76;95572.88;4985177;28;20111;-53
2022/04/14 02:49:46;;;;;;;6.70;2.92;;;11.30;62.90;;;7.29;81.91;95573.91;4987839;28;20541;-52
2022/04/14 02:52:12;;;;;;;6.22;2.78;;;11.30;62.80;;;7.26;82.18;95579.69;4992462;28;20037;-52
2022/04/14 02:54:37;;;;;;;8.40;2.92;;;11.20;62.90;;;7.23;82.03;95574.88;5010823;28;20072;-54
2022/04/14 02:57:09;;;;;;;5.30;2.67;;;11.20;63.00;;;7.21;81.85;95568.22;5011533;28;20108;-49
2022/04/14 02:59:36;;;;;;;8.97;2.60;;;11.20;63.10;;;7.21;82.17;95571.69;4990733;28;20375;-51
2022/04/14 03:02:04;;;;;;;5.97;2.85;;;11.10;62.90;;;7.23;82.38;95577.53;4988675;28;20030;-50
2022/04/14 03:04:30;;;;;;;7.18;2.78;;;11.10;63.10;;;7.21;82.45;95586.75;5008356;28;20404;-52
2022/04/14 03:07:05;;;;;;;10.75;3.10;;;11.10;63.10;;;7.14;82.40;95577.13;4997672;28;20114;-50
2022/04/14 03:09:31;;;;;;;6.05;2.72;;;11.10;63.30;;;7.17;82.45;95589.88;5015261;28;20051;-52
2022/04/14 03:12:00;;;;;;;5.53;2.60;;;11.10;63.20;;;7.13;82.48;95590.63;4998264;28;20022;-54
2022/04/14 03:14:25;;;;;;;10.52;2.75;;;11.10;63.30;;;7.05;82.81;95593.66;5015511;28;20493;-53
2022/04/14 03:16:51;;;;;;;6.78;2.92;;;11.00;63.30;;;7.01;82.80;95589.91;5011466;28;20025;-51
2022/04/14 03:19:17;;;;;;;3.50;2.75;;;11.00;63.30;;;7.04;83.41;95592.88;5009365;28;20084;-54
2022/04/14 03:21:43;;;;;;;9.25;2.83;;;11.00;63.40;;;7.06;83.49;95590.78;5015662;28;20484;-52
2022/04/14 03:24:08;;;;;;;5.00;2.85;;;11.00;63.60;;;7.09;83.01;95594.81;5015442;28;20110;-52
2022/04/14 03:26:34;;;;;;;6.32;2.90;;;11.00;63.70;;;7.10;82.86;95588.47;5015646;28;20038;-52
2022/04/14 03:29:00;;;;;;;5.28;2.75;;;11.00;63.60;;;7.11;82.98;95593.53;5015380;28;20025;-53
2022/04/14 03:31:32;;;;;;;5.78;2.63;;;11.00;63.60;;;7.16;82.71;95595.44;4981553;28;20072;-51
2022/04/14 03:34:09;;;;;;;9.38;3.10;;;11.00;63.70;;;7.23;83.78;95595.28;5011926;28;20026;-55
2022/04/14 03:36:38;;;;;;;8.27;3.20;;;11.00;64.00;;;7.31;83.76;95589.56;5015384;28;20397;-52
2022/04/14 03:39:04;;;;;;;7.45;3.05;;;11.10;64.20;;;7.41;83.74;95595.00;4997601;28;20057;-55
2022/04/14 03:41:30;;;;;;;9.48;3.10;;;11.20;64.40;;;7.51;83.49;95597.00;5015348;28;20030;-49
2022/04/14 03:43:59;;;;;;;4.65;2.53;;;11.20;64.40;;;7.55;83.47;95592.81;4997690;28;20378;-52
2022/04/14 03:46:24;;;;;;;7.45;2.85;;;11.40;64.50;;;7.67;83.27;95604.09;4981539;28;20394;-49
2022/04/14 03:48:59;;;;;;;9.02;3.05;;;11.40;64.30;;;7.68;82.54;95595.13;4997661;28;20026;-56
2022/04/14 03:51:25;;;;;;;7.85;2.58;;;11.60;64.30;;;7.71;81.52;95597.28;4997491;28;20092;-51
2022/04/14 03:53:51;;;;;;;7.93;2.83;;;11.70;63.80;;;7.62;80.81;95610.16;4997594;28;20034;-51
2022/04/14 03:56:17;;;;;;;12.15;3.22;;;11.60;63.30;;;7.51;81.08;95603.09;4997543;28;20063;-54
2022/04/14 03:58:43;;;;;;;7.50;3.25;;;11.60;63.10;;;7.42;81.77;95604.56;5014948;28;20028;-54
2022/04/14 04:01:08;;;;;;;6.80;3.05;;;11.60;62.90;;;7.36;82.17;95608.19;4975937;28;20022;-50
2022/04/14 04:03:34;;;;;;;8.50;2.92;;;11.50;62.80;;;7.40;82.28;95611.97;4994944;28;20054;-51
2022/04/14 04:06:03;;;;;;;7.88;3.38;;;11.50;62.90;;;7.41;82.07;95614.34;4995373;28;20065;-49
2022/04/14 04:08:32;;;;;;;7.97;3.10;;;11.40;62.90;;;7.31;82.20;95608.91;4977800;28;20113;-54
2022/04/14 04:11:03;;;;;;;9.20;3.20;;;11.40;62.90;;;7.29;82.56;95618.16;4995150;28;20050;-50
2022/04/14 04:13:29;;;;;;;6.57;3.42;;;11.30;63.10;;;7.26;82.87;95616.78;4994581;28;20494;-55
2022/04/14 04:15:54;;;;;;;6.45;2.90;;;11.30;63.20;;;7.20;82.71;95617.75;4994456;28;20030;-55
2022/04/14 04:18:23;;;;;;;10.90;3.60;;;11.20;63.10;;;7.13;83.08;95617.13;4977802;28;20026;-50
2022/04/14 04:20:52;;;;;;;9.85;3.72;;;11.20;64.00;;;7.13;82.81;95627.72;4993911;28;20030;-51
2022/04/14 04:23:17;;;;;;;10.88;4.00;;;11.20;63.40;;;7.09;82.74;95630.03;4994822;28;20026;-50
2022/04/14 04:25:43;;;;;;;9.07;3.80;;;11.10;63.30;;;7.03;82.75;95624.91;4994906;28;20043;-50
2022/04/14 04:28:09;;;;;;;8.18;3.22;;;11.00;63.30;;;6.97;83.13;95633.81;4994917;28;20038;-51
2022/04/14 04:30:35;;;;;;;13.55;4.50;;;11.00;63.30;;;6.87;83.90;95634.47;4977510;28;20042;-51
2022/04/14 04:33:06;;;;;;;9.75;4.38;;;10.90;63.60;;;6.86;83.86;95623.06;5009830;28;20023;-51
2022/04/14 04:35:35;;;;;;;11.00;3.40;;;10.90;63.70;;;6.83;83.66;95630.66;4984761;28;20034;-51
2022/04/14 04:38:07;;;;;;;10.98;4.07;;;10.90;63.90;;;6.82;84.54;95637.00;4998038;28;20049;-50
2022/04/14 04:40:32;;;;;;;9.48;3.75;;;10.80;64.00;;;6.82;85.18;95645.75;4994715;28;20029;-51
2022/04/14 04:43:09;;;;;;;8.68;3.83;;;10.80;64.30;;;6.89;85.59;95640.31;4994438;28;20022;-51
2022/04/14 04:45:37;;;;;;;10.55;4.15;;;10.80;64.80;;;6.92;84.75;95634.53;4964825;28;20052;-52
2022/04/14 04:48:04;;;;;;;9.13;3.97;;;10.80;64.70;;;6.95;85.27;95640.13;5029296;28;20026;-53
2022/04/14 04:50:31;;;;;;;7.57;3.85;;;10.80;64.80;;;7.01;84.95;95650.81;5029161;28;20030;-53
2022/04/14 04:52:56;;;;;;;7.38;3.95;;;10.90;64.80;;;7.00;84.77;95651.88;4995063;28;20041;-51
2022/04/14 04:55:22;;;;;;;9.07;4.03;;;10.90;64.80;;;6.95;84.75;95645.44;4989955;28;20037;-52
2022/04/14 04:57:48;;;;;;;7.15;4.03;;;10.90;64.80;;;6.93;84.94;95644.88;5004993;28;20034;-52
2022/04/14 05:00:17;;;;;;;14.45;3.95;;;10.90;64.80;;;6.88;84.85;95647.44;4998907;28;20034;-50
2022/04/14 05:02:43;;;;;;;11.95;4.35;;;10.90;64.90;;;6.89;84.74;95654.38;4976531;28;20137;-50
2022/04/14 05:05:09;;;;;;;11.10;4.55;;;10.90;64.90;;;6.95;85.30;95652.59;5028989;28;20105;-50
2022/04/14 05:07:34;;;;;;;9.57;4.63;;;10.90;65.00;;;7.04;85.52;95650.34;5028994;28;20113;-52
2022/04/14 05:10:00;;;;;;;11.35;4.45;;;11.00;65.20;;;7.15;85.55;95658.22;4987029;28;20026;-50
2022/04/14 05:12:26;;;;;;;9.75;4.25;;;11.00;65.40;;;7.30;84.85;95654.19;4993904;28;20086;-51
2022/04/14 05:15:01;;;;;;;7.68;3.83;;;11.10;65.50;;;7.48;84.04;95661.91;4976761;28;20050;-53
2022/04/14 05:17:27;;;;;;;11.38;4.03;;;11.20;65.60;;;7.55;83.98;95657.25;4993850;28;20030;-52
2022/04/14 05:19:55;;;;;;;6.22;3.75;;;11.30;65.50;;;7.67;83.77;95664.28;4976504;28;20057;-51
2022/04/14 05:22:21;;;;;;;15.07;4.15;;;11.40;65.60;;;7.80;83.80;95661.28;4995406;28;20048;-50
2022/04/14 05:24:47;;;;;;;9.85;3.67;;;11.50;65.40;;;8.04;83.21;95675.13;4996145;28;20476;-49
2022/04/14 05:27:13;;;;;;;7.78;3.58;;;11.70;66.10;;;8.23;82.50;95679.09;4966446;28;20169;-51
2022/04/14 05:29:38;;;;;;;10.75;3.50;;;11.90;65.20;;;8.43;81.97;95683.88;4990812;28;20023;-49
2022/04/14 05:32:05;;;;;;;7.07;3.50;;;12.10;65.00;;;8.63;81.26;95683.28;5010245;28;20022;-52
2022/04/14 05:34:31;;;;;;;9.63;3.33;;;12.40;64.90;;;8.87;81.15;95673.19;5013185;28;20037;-51
2022/04/14 05:36:56;;;;;;;7.38;3.63;;;12.50;64.60;;;9.00;80.50;95666.66;4992542;28;20029;-57
2022/04/14 05:39:22;;;;;;;9.82;3.85;;;12.80;64.40;;;9.16;79.63;95667.59;5004009;28;20034;-49
2022/04/14 05:41:48;;;;;;;7.68;3.53;;;13.00;64.20;;;9.32;79.38;95671.19;4993312;28;20026;-53
2022/04/14 05:44:22;;;;;;;10.85;4.00;;;13.20;63.90;;;9.40;78.74;95670.69;5003743;28;20076;-50
2022/04/14 05:46:56;;;;;;;8.98;3.83;;;13.40;63.60;;;9.64;78.77;95665.81;4995206;28;20033;-51
2022/04/14 05:49:22;;;;;;;5.95;3.22;;;13.60;63.10;;;9.89;78.59;95662.50;5013015;28;20032;-53
2022/04/14 05:51:48;;;;;;;9.15;3.58;;;13.90;62.70;;;10.16;78.24;95670.38;4985643;28;20030;-52
2022/04/14 05:54:17;;;;;;;7.30;3.60;;;14.20;62.50;;;10.44;77.67;95669.19;4993118;28;20034;-53
2022/04/14 05:56:42;;;;;;;9.02;3.50;;;14.50;62.30;;;10.76;76.90;95668.22;5013360;28;20142;-52
2022/04/14 05:59:16;;;;;;;7.63;3.20;;;14.80;61.90;;;11.08;75.71;95668.78;5013132;28;20475;-53
2022/04/14 06:01:45;;;;;;;11.02;3.33;;;15.20;61.50;;;11.50;74.33;95675.75;4992010;28;20089;-51
2022/04/14 06:04:13;;;;;;;8.80;3.28;;;15.50;60.90;;;11.87;73.61;95679.19;5003174;28;20039;-50
2022/04/14 06:06:40;;;;;;;10.82;3.15;;;15.90;60.30;;;12.23;70.26;95671.88;5012768;28;20029;-54
2022/04/14 06:09:06;;;;;;;6.60;2.90;;;16.30;59.70;;;12.58;69.31;95668.25;4980273;28;20022;-55
2022/04/14 06:11:34;;;;;;;5.68;2.95;;;16.70;59.10;;;12.90;67.93;95675.84;4996679;28;20122;-55
2022/04/14 06:14:00;;;;;;;6.20;3.13;;;17.10;58.50;;;13.18;66.67;95676.19;4989982;28;20079;-51
2022/04/14 06:16:29;;;;;;;6.57;3.08;;;17.40;58.00;;;13.49;65.00;95676.78;4992955;28;20113;-51
2022/04/14 06:18:54;;;;;;;5.47;3.10;;;17.80;57.40;;;13.69;63.11;95678.50;4978502;28;20026;-52
2022/04/14 06:21:20;;;;;;;7.68;2.90;;;18.20;56.70;;;13.98;62.16;95680.38;4995004;28;20033;-50
2022/04/14 06:23:49;;;;;;;9.45;3.22;;;18.50;56.00;;;14.27;61.80;95677.66;5012134;28;20038;-54
2022/04/14 06:26:16;;;;;;;5.80;3.05;;;18.90;55.30;;;14.53;60.75;95670.13;4994303;28;20366;-54
2022/04/14 06:28:42;;;;;;;9.98;2.88;;;19.20;54.70;;;14.86;59.58;95679.09;4994110;28;20022;-53
2022/04/14 06:31:08;;;;;;;8.20;2.95;;;19.60;54.10;;;15.08;59.01;95686.56;5011574;28;20049;-52
2022/04/14 06:33:37;;;;;;;6.65;3.15;;;20.00;53.30;;;15.37;57.29;95682.94;4994331;28;20079;-50
2022/04/14 06:36:03;;;;;;;5.68;3.38;;;20.20;53.00;;;15.57;57.12;95679.91;4994581;28;20030;-55
2022/04/14 06:38:29;;;;;;;6.97;3.10;;;20.50;51.80;;;15.88;55.57;95684.81;4996938;28;20065;-55
2022/04/14 06:40:57;;;;;;;7.93;3.80;;;20.80;51.20;;;15.97;54.82;95685.72;5016169;28;20057;-57
2022/04/14 06:43:24;;;;;;;8.90;2.80;;;21.10;50.40;;;16.11;55.05;95680.38;5016115;28;20385;-55
2022/04/14 06:45:51;;;;;;;5.43;3.33;;;21.50;49.80;;;16.29;54.05;95682.16;4998910;28;20045;-55
2022/04/14 06:48:35;;;;;;;7.57;3.20;;;21.70;49.00;;;16.41;53.61;95687.03;4982577;28;20036;-55
2022/04/14 06:51:04;;;;;;;6.85;3.10;;;22.00;48.00;;;16.61;53.56;95680.50;4998648;28;20025;-52
2022/04/14 06:53:29;;;;;;;7.53;2.78;;;22.30;47.60;;;16.77;52.48;95679.09;5015946;28;20030;-54
2022/04/14 06:55:58;;;;;;;6.55;3.10;;;22.50;47.10;;;16.92;52.45;95691.41;4999000;28;20034;-55
2022/04/14 06:58:24;;;;;;;9.35;3.10;;;22.70;46.40;;;17.09;51.98;95682.72;5016182;28;20618;-58
2022/04/14 07:00:50;;;;;;;6.93;3.50;;;23.00;45.90;;;17.31;51.85;95690.03;5013968;28;20061;-56
2022/04/14 07:03:15;;;;;;;8.68;3.78;;;23.30;45.40;;;17.48;51.24;95684.75;5015823;23;20523;-57
2022/04/14 07:05:41;;;;;;;6.25;2.35;;;23.50;44.90;;;17.78;50.49;95694.03;4995479;28;20095;-58
2022/04/14 07:08:13;;;;;;;6.90;3.30;;;23.70;44.20;;;17.92;50.31;95690.47;5030470;28;20029;-58
2022/04/14 07:10:45;;;;;;;5.70;3.53;;;24.10;43.60;;;18.22;49.46;95700.47;5031035;28;20507;-57
2022/04/14 07:13:20;;;;;;;7.03;3.50;;;24.30;43.20;;;18.42;49.12;95691.03;5017745;28;20041;-58
2022/04/14 07:15:49;;;;;;;7.70;3.08;;;24.70;42.50;;;18.72;48.01;95700.19;5034243;28;20025;-58
2022/04/14 07:18:23;;;;;;;6.57;3.25;;;24.90;41.90;;;18.86;47.76;95708.16;5034099;28;20108;-58
2022/04/14 07:20:48;;;;;;;7.85;2.88;;;25.20;41.20;;;19.05;46.55;95696.28;5017820;28;20033;-57
2022/04/14 07:23:27;;;;;;;8.13;2.90;;;25.30;40.80;;;19.25;46.04;95697.59;5035143;28;20468;-58
2022/04/14 07:25:56;;;;;;;14.18;3.17;;;25.60;40.40;;;19.47;45.98;95708.25;5035335;28;20080;-58
2022/04/14 07:28:22;;;;;;;9.15;3.45;;;25.80;39.60;;;19.69;45.12;95714.63;5017423;28;20083;-57
2022/04/14 07:30:47;;;;;;;8.43;3.53;;;26.00;39.30;;;19.52;45.07;95710.78;5033811;28;20480;-58
2022/04/14 07:33:16;;;;;;;8.18;2.90;;;26.10;38.60;;;19.50;44.58;95707.63;5035125;28;20057;-58
2022/04/14 07:35:42;;;;;;;7.45;3.03;;;26.30;38.00;;;19.27;45.60;95706.16;5017251;28;20037;-58
2022/04/14 07:38:08;;;;;;;6.72;3.10;;;26.30;37.40;;;19.47;44.76;95715.56;5034383;28;20141;-58
2022/04/14 07:40:33;;;;;;;8.40;3.30;;;26.40;37.20;;;19.60;44.68;95714.59;5035052;28;20079;-55
2022/04/14 07:42:59;;;;;;;15.25;3.42;;;26.40;36.80;;;19.93;43.99;95717.63;5034738;28;20025;-58
2022/04/14 07:45:25;;;;;;;10.20;3.15;;;26.50;36.60;;;20.17;43.69;95719.78;5017098;28;20369;-59
2022/04/14 07:47:51;;;;;;;10.25;3.10;;;26.70;36.40;;;20.30;43.18;95715.28;5034823;28;20029;-59
2022/04/14 07:50:24;;;;;;;8.55;3.42;;;26.90;36.10;;;20.63;42.57;95720.94;5017044;28;20034;-59
2022/04/14 07:52:55;;;;;;;8.48;3.10;;;27.20;35.60;;;20.53;42.25;95732.91;5033324;28;20399;-58
2022/04/14 07:55:25;;;;;;;7.95;2.97;;;27.30;34.90;;;20.95;41.45;95732.25;5017089;28;20061;-58
2022/04/14 07:57:54;;;;;;;7.45;3.08;;;27.50;34.50;;;21.26;41.28;95737.31;5034482;28;20116;-58
2022/04/14 08:00:23;;;;;;;9.57;3.47;;;27.70;34.40;;;21.33;41.24;95731.38;5034609;28;20044;-58
2022/04/14 08:03:05;;;;;;;16.00;4.68;;;27.80;34.60;;;21.40;41.02;95737.91;5020676;28;20076;-56
2022/04/14 08:05:34;;;;;;;8.20;3.70;;;28.00;33.60;;;21.67;40.66;95736.56;5016566;28;20383;-56
2022/04/14 08:08:10;;;;;;;10.30;3.17;;;28.10;33.60;;;21.58;40.46;95733.13;5031016;28;20022;-53
2022/04/14 08:10:46;;;;;;;9.52;3.08;;;28.30;33.10;;;21.70;40.40;95738.59;5029147;28;20109;-57
2022/04/14 08:13:18;;;;;;;5.30;3.28;;;28.50;32.90;;;21.65;40.76;95732.56;5016528;28;20025;-56
2022/04/14 08:15:45;;;;;;;9.82;3.22;;;28.60;32.50;;;21.87;40.03;95739.56;5016730;28;20051;-59
2022/04/14 08:18:14;;;;;;;10.68;4.13;;;28.80;32.20;;;21.86;39.83;95738.00;5034388;28;20038;-59
2022/04/14 08:20:40;;;;;;;8.77;3.72;;;29.00;31.90;;;22.02;39.67;95736.25;5032816;28;20029;-58
2022/04/14 08:23:14;;;;;;;6.93;4.00;;;29.10;31.60;;;22.21;39.42;95741.19;5034035;28;20121;-57
2022/04/14 08:25:40;;;;;;;7.68;3.65;;;29.20;31.30;;;22.26;39.00;95742.91;5017080;28;20472;-59
2022/04/14 08:28:07;;;;;;;12.02;4.72;;;29.30;31.10;;;22.26;39.45;95746.41;5034021;28;20032;-58
2022/04/14 08:30:36;;;;;;;13.15;4.15;;;29.50;30.90;;;22.47;39.49;95742.81;5032814;28;20030;-58
2022/04/14 08:33:12;;;;;;;13.20;4.63;;;29.60;30.80;;;22.68;38.53;95738.09;5033824;28;20053;-57
2022/04/14 08:35:38;;;;;;;10.27;4.18;;;29.80;30.50;;;22.87;38.06;95732.13;5016592;28;20033;-58
2022/04/14 08:38:08;;;;;;;7.05;4.10;;;30.00;30.40;;;22.99;37.96;95739.50;5016259;28;20080;-59
2022/04/14 08:40:39;;;;;;;8.07;4.38;;;30.20;30.10;;;23.14;37.97;95733.38;5033950;28;20404;-59
2022/04/14 08:43:09;;;;;;;6.85;4.70;;;30.30;29.90;;;23.08;37.85;95746.41;5032682;28;20026;-59
2022/04/14 08:45:55;;;;;;;10.15;4.55;;;30.50;29.80;;;23.28;37.55;95738.44;5033885;28;20484;-59
2022/04/14 08:48:22;;;;;;;10.32;4.68;;;30.70;29.50;;;23.68;37.02;95748.56;5016251;28;20033;-57
2022/04/14 08:50:50;;;;;;;9.95;4.82;;;30.90;29.50;;;23.75;36.65;95743.34;5033587;28;20029;-59
2022/04/14 08:53:18;;;;;;;7.43;5.28;;;31.00;29.20;;;24.03;36.26;95743.34;5033301;28;20075;-59
2022/04/14 08:55:45;;;;;;;13.35;5.63;;;31.20;29.00;;;24.13;36.09;95751.03;5030709;28;20030;-57
2022/04/14 08:58:16;;;;;;;10.80;5.50;;;31.50;28.80;;;24.36;35.60;95745.03;5044279;28;20030;-59
2022/04/14 09:00:42;;;;;;;11.93;5.72;;;31.70;28.50;;;24.69;35.03;95752.88;5014658;28;20681;-57
2022/04/14 09:03:08;;;;;;;10.45;4.93;;;31.90;28.30;;;24.64;34.28;95743.06;5025944;28;20069;-59
2022/04/14 09:05:38;;;;;;;11.10;4.53;;;32.00;28.10;;;24.77;34.56;95745.69;5032410;28;20508;-59
2022/04/14 09:08:07;;;;;;;10.40;4.75;;;32.00;27.90;;;24.89;34.00;95748.31;5015065;28;20030;-59
2022/04/14 09:10:36;;;;;;;6.32;4.38;;;32.20;27.60;;;24.97;34.69;95749.28;5013853;28;20386;-59
2022/04/14 09:13:02;;;;;;;12.88;5.00;;;32.40;27.50;;;25.00;34.39;95733.00;5023474;28;20069;-59
2022/04/14 09:15:31;;;;;;;8.23;4.20;;;32.20;27.50;;;25.01;34.55;95733.78;5024067;28;20030;-57
2022/04/14 09:17:57;;;;;;;10.68;4.70;;;32.10;27.40;;;24.79;34.62;95732.50;5011643;28;20408;-58
2022/04/14 09:20:42;;;;;;;8.75;5.13;;;31.80;27.50;;;24.68;34.31;95732.25;5026070;28;20036;-58
2022/04/14 09:23:25;;;;;;;14.30;4.65;;;31.70;27.50;;;24.74;34.64;95728.13;4988974;28;20052;-58
2022/04/14 09:26:03;;;;;;;13.70;6.13;;;31.70;27.50;;;24.62;35.41;95728.19;5017592;28;20029;-57
2022/04/14 09:28:29;;;;;;;11.38;4.55;;;31.90;27.50;;;24.73;35.28;95725.75;5021821;28;20037;-55
2022/04/14 09:31:00;;;;;;;11.43;5.53;;;32.00;27.50;;;25.09;34.24;95724.66;4996010;28;20618;-60
2022/04/14 09:33:27;;;;;;;10.27;4.43;;;32.20;27.20;;;25.35;33.58;95726.81;5007126;28;20045;-60
2022/04/14 09:36:18;;;;;;;11.43;4.30;;;32.40;27.10;;;25.25;33.28;95719.97;5003797;28;20050;-60
2022/04/14 09:39:07;;;;;;;10.93;4.45;;;32.70;26.70;;;25.42;32.68;95720.75;5026635;28;20419;-60
2022/04/14 09:41:38;;;;;;;10.38;4.60;;;32.80;26.50;;;25.70;32.69;95721.34;5024617;28;20034;-60
2022/04/14 09:44:06;;;;;;;11.20;7.53;;;33.00;26.50;;;26.22;32.24;95716.50;5009693;28;20017;-60
2022/04/14 09:46:33;;;;;;;7.82;4.57;;;33.20;26.40;;;26.47;31.92;95714.22;5010964;28;20053;-61
2022/04/14 09:49:07;;;;;;;11.00;4.70;;;33.30;26.30;;;26.69;31.04;95708.00;4994003;28;20184;-61
2022/04/14 09:51:41;;;;;;;9.98;4.97;;;33.60;26.00;;;26.85;31.12;95707.09;5026923;28;20026;-61
2022/04/14 09:54:12;;;;;;;8.13;4.85;;;33.90;25.90;;;26.97;30.78;95713.13;5005521;28;20030;-61
2022/04/14 09:56:46;;;;;;;11.10;4.40;;;34.10;25.60;;;26.58;31.34;95709.78;5008622;28;20133;-60
2022/04/14 09:59:29;;;;;;;10.20;5.10;;;34.20;25.20;;;26.81;31.31;95708.97;5024784;28;20029;-60
2022/04/14 10:02:15;;;;;;;11.13;4.75;;;34.30;25.10;;;26.97;30.80;95704.16;5022119;28;20040;-60
2022/04/14 10:04:45;;;;;;;8.68;4.47;;;34.40;25.00;;;27.40;30.11;95696.59;5020368;28;20129;-60
2022/04/14 10:07:19;;;;;;;12.18;7.25;;;34.60;25.00;;;27.74;29.39;95711.09;5013555;28;20026;-60
2022/04/14 10:09:53;;;;;;;10.20;4.25;;;34.80;24.70;;;27.64;29.56;95700.78;5007334;28;20109;-58
2022/04/14 10:12:22;;;;;;;10.60;5.63;;;34.90;24.50;;;27.62;29.66;95703.91;5024097;28;20030;-61
2022/04/14 10:15:01;;;;;;;11.50;6.38;;;35.00;24.30;;;27.46;30.16;95697.84;5008383;28;20607;-60
2022/04/14 10:17:53;;;;;;;8.50;4.80;;;35.10;24.20;;;27.69;30.13;95695.78;5010587;28;20395;-61
2022/04/14 10:20:20;;;;;;;9.13;5.35;;;35.20;24.30;;;27.75;29.82;95690.78;5009718;28;20084;-61
2022/04/14 10:22:46;;;;;;;8.65;5.10;;;35.30;24.20;;;27.84;29.54;95702.25;5025072;28;20034;-61
2022/04/14 10:25:13;;;;;;;14.60;5.32;;;35.30;24.00;;;27.55;29.22;95698.38;5010039;28;20025;-61
2022/04/14 10:27:42;;;;;;;9.35;4.80;;;35.40;23.90;;;27.93;29.27;95695.72;5010066;28;20030;-60